Washington, DC (20044)

6:53 PM EDT on July 29, 2016 (GMT -0400)
The Washington Post | | Change Station

Elev 151 ft 38.90 °N, 77.03 °W | Updated 9 seconds ago

Mostly Cloudy
Mostly Cloudy
90.0 °F
Feels Like 94 °F
N
6.9
Wind Variable Wind from WSW
Gusts 9.0 mph

Today
High -- | Low -- °F
--% Chance of Precip.
Yesterday
High -- | Low -- °F
Precip. -- in
Pressure 29.88 in
Visibility 10.0 miles
Clouds Mostly Cloudy 5000 ft
Mostly Cloudy 6500 ft
Heat Index 94 °F
Dew Point 68 °F
Humidity 49%
Rainfall 0.54 in
Snow Depth Not available.
6:06 AM 8:21 PM
Waning Crescent, 18% visible
METAR KDCA 292152Z 18007KT 10SM BKN050TCU BKN065 31/21 A2988 RMK AO2 SLP117 TCU NE T03110211
Pressure 29.88 in
Visibility 10.0 miles
Clouds Mostly Cloudy 5000 ft
Mostly Cloudy 6500 ft
Heat Index 94 °F
Dew Point 68 °F
Humidity 49%
Rainfall 0.54 in
Snow Depth Not available.
6:06 AM 8:21 PM
Waning Crescent, 18% visible
METAR KDCA 292152Z 18007KT 10SM BKN050TCU BKN065 31/21 A2988 RMK AO2 SLP117 TCU NE T03110211

10-Day Weather Forecast

Almanac

Astronomy

Jul. 29, 2016 Rise Set
Actual Time
Civil Twilight
Nautical Twilight
Astronomical Twilight
Moon
Length of Visible Light
Length of Day
Tomorrow will be .
, % of the Moon is Illuminated

Today's Extremes

State Highs State Lows

Community

WunderPhotos

Upload Photos

1,928,436 photos uploaded!

WunderBlog® & News

Nearby

Air Quality

  Air Quality AQ Index Pollutant
Not available.

Snow Depth

Station Depth Elevation

Earthquake Activity

City Distance Mag. Time & Date
Minimum magnitude displayed is 2.5.

Coastal Water Temperatures

Place Temperature

Stations

Nearby Weather Stations

Station Location Temp. Windchill Dew Point Humidity Wind Precip. Elev Updated Type
                   

Watches & Warnings

There are currently no watches in effect.